KRYY/RYY METAR and TAF weather

Enter ICAO airport designator
Station Type Date Time Source
KRYY METAR 2019/12/16 02:50 UTC NOAA

KRYY 160250Z 09006KT 10SM OVC029 13/09 A3012 RMK AO2 SLP920 6//// T01280089 50001 PNO $


Station Type Date Time Source
KRYY Decoded METAR 2019/12/16 02:50 UTC NOAA

Marietta, Cobb County-McCollum Field Airport, GA, United States (KRYY) 34-00-47N 084-35-55W
Dec 15, 2019 - 09:50 PM EST / 2019.12.16 0250 UTC
Wind: from the E (090 degrees) at 7 MPH (6 KT):0
Visibility: 10 mile(s):0
Sky conditions: overcast
Temperature: 55.0 F (12.8 C)
Dew Point: 48.0 F (8.9 C)
Relative Humidity: 77%
Pressure (altimeter): 30.12 in. Hg (1019 hPa)
Pressure tendency: 0.00 inches (0.1 hPa) higher than three hours ago
ob: KRYY 160250Z 09006KT 10SM OVC029 13/09 A3012 RMK AO2 SLP920 6//// T01280089 50001 PNO
cycle: 3

Station Type Date Time Source
KRYY TAF 2019/12/15 18:33 UTC NOAA

TAF KRYY 151731Z 1518/1618 VRB05KT P6SM FEW007 SCT015 SCT120
FM152100 17006KT P6SM BKN090
FM160300 15005KT P6SM OVC030
FM160900 15004KT P6SM VCSH OVC018
FM161200 16006KT P6SM VCSH OVC009
FM161600 17007KT P6SM VCSH BKN010

Example: see airport list